sensor_id;sensor_type;location;lat;lon;timestamp;temperature;humidity
69082;DHT22;69029;51.986;5.760;2023-07-09T00:00:16;27.20;58.60
69082;DHT22;69029;51.986;5.760;2023-07-09T00:02:43;27.20;58.10
69082;DHT22;69029;51.986;5.760;2023-07-09T00:05:14;27.10;59.20
69082;DHT22;69029;51.986;5.760;2023-07-09T00:07:41;27.10;58.50
69082;DHT22;69029;51.986;5.760;2023-07-09T00:10:18;27.10;58.50
69082;DHT22;69029;51.986;5.760;2023-07-09T00:12:45;27.10;55.90
69082;DHT22;69029;51.986;5.760;2023-07-09T00:15:12;27.00;57.70
69082;DHT22;69029;51.986;5.760;2023-07-09T00:17:38;27.00;57.20
69082;DHT22;69029;51.986;5.760;2023-07-09T00:20:07;27.00;59.30
69082;DHT22;69029;51.986;5.760;2023-07-09T00:22:40;26.90;59.10
69082;DHT22;69029;51.986;5.760;2023-07-09T00:25:07;26.90;60.10
69082;DHT22;69029;51.986;5.760;2023-07-09T00:27:33;26.90;59.20
69082;DHT22;69029;51.986;5.760;2023-07-09T00:29:59;26.90;57.70
69082;DHT22;69029;51.986;5.760;2023-07-09T00:32:25;26.80;58.50
69082;DHT22;69029;51.986;5.760;2023-07-09T00:34:51;26.80;59.30
69082;DHT22;69029;51.986;5.760;2023-07-09T00:37:21;26.70;59.50
69082;DHT22;69029;51.986;5.760;2023-07-09T00:39:51;26.70;60.50
69082;DHT22;69029;51.986;5.760;2023-07-09T00:42:20;26.70;60.30
69082;DHT22;69029;51.986;5.760;2023-07-09T00:44:50;26.70;60.90
69082;DHT22;69029;51.986;5.760;2023-07-09T00:47:38;26.70;60.30
69082;DHT22;69029;51.986;5.760;2023-07-09T00:50:19;26.60;60.30
69082;DHT22;69029;51.986;5.760;2023-07-09T00:52:52;26.60;61.20
69082;DHT22;69029;51.986;5.760;2023-07-09T00:55:23;26.60;62.10
69082;DHT22;69029;51.986;5.760;2023-07-09T00:57:52;26.60;61.90
69082;DHT22;69029;51.986;5.760;2023-07-09T01:00:29;26.60;60.90
69082;DHT22;69029;51.986;5.760;2023-07-09T01:03:02;26.50;61.70
69082;DHT22;69029;51.986;5.760;2023-07-09T01:05:28;26.50;62.90
69082;DHT22;69029;51.986;5.760;2023-07-09T01:07:54;26.50;62.60
69082;DHT22;69029;51.986;5.760;2023-07-09T01:10:19;26.40;61.50
69082;DHT22;69029;51.986;5.760;2023-07-09T01:12:46;26.40;62.50
69082;DHT22;69029;51.986;5.760;2023-07-09T01:15:13;26.40;62.30
69082;DHT22;69029;51.986;5.760;2023-07-09T01:17:40;26.40;62.10
69082;DHT22;69029;51.986;5.760;2023-07-09T01:20:15;26.40;61.00
69082;DHT22;69029;51.986;5.760;2023-07-09T01:22:41;26.30;60.60
69082;DHT22;69029;51.986;5.760;2023-07-09T01:25:07;26.30;61.70
69082;DHT22;69029;51.986;5.760;2023-07-09T01:27:38;26.30;61.80
69082;DHT22;69029;51.986;5.760;2023-07-09T01:30:15;26.30;60.90
69082;DHT22;69029;51.986;5.760;2023-07-09T01:32:41;26.20;61.10
69082;DHT22;69029;51.986;5.760;2023-07-09T01:35:12;26.20;62.00
69082;DHT22;69029;51.986;5.760;2023-07-09T01:37:39;26.20;62.20
69082;DHT22;69029;51.986;5.760;2023-07-09T01:40:06;26.10;62.60
69082;DHT22;69029;51.986;5.760;2023-07-09T01:42:32;26.10;62.30
69082;DHT22;69029;51.986;5.760;2023-07-09T01:44:58;26.10;62.90
69082;DHT22;69029;51.986;5.760;2023-07-09T01:47:24;26.10;63.40
69082;DHT22;69029;51.986;5.760;2023-07-09T01:49:51;26.00;63.60
69082;DHT22;69029;51.986;5.760;2023-07-09T01:52:23;26.00;63.20
69082;DHT22;69029;51.986;5.760;2023-07-09T01:54:49;26.00;63.40
69082;DHT22;69029;51.986;5.760;2023-07-09T01:57:21;26.00;63.90
69082;DHT22;69029;51.986;5.760;2023-07-09T01:59:51;26.00;64.10
69082;DHT22;69029;51.986;5.760;2023-07-09T02:02:18;26.00;63.50
69082;DHT22;69029;51.986;5.760;2023-07-09T02:04:55;25.90;63.90
69082;DHT22;69029;51.986;5.760;2023-07-09T02:07:22;25.90;63.50
69082;DHT22;69029;51.986;5.760;2023-07-09T02:09:49;25.90;63.10
69082;DHT22;69029;51.986;5.760;2023-07-09T02:12:15;25.90;60.90
69082;DHT22;69029;51.986;5.760;2023-07-09T02:14:42;25.90;64.00
69082;DHT22;69029;51.986;5.760;2023-07-09T02:17:09;25.80;63.50
69082;DHT22;69029;51.986;5.760;2023-07-09T02:19:35;25.80;62.90
69082;DHT22;69029;51.986;5.760;2023-07-09T02:22:02;25.80;63.60
69082;DHT22;69029;51.986;5.760;2023-07-09T02:24:29;25.80;63.50
69082;DHT22;69029;51.986;5.760;2023-07-09T02:26:55;25.80;65.10
69082;DHT22;69029;51.986;5.760;2023-07-09T02:29:22;25.70;63.40
69082;DHT22;69029;51.986;5.760;2023-07-09T02:31:50;25.70;63.10
69082;DHT22;69029;51.986;5.760;2023-07-09T02:34:16;25.70;64.00
69082;DHT22;69029;51.986;5.760;2023-07-09T02:36:42;25.70;64.20
69082;DHT22;69029;51.986;5.760;2023-07-09T02:39:12;25.70;62.90
69082;DHT22;69029;51.986;5.760;2023-07-09T02:41:41;25.60;63.70
69082;DHT22;69029;51.986;5.760;2023-07-09T02:44:07;25.60;63.90
69082;DHT22;69029;51.986;5.760;2023-07-09T02:46:34;25.60;63.70
69082;DHT22;69029;51.986;5.760;2023-07-09T02:49:04;25.60;64.20
69082;DHT22;69029;51.986;5.760;2023-07-09T02:51:30;25.50;64.70
69082;DHT22;69029;51.986;5.760;2023-07-09T02:53:58;25.50;63.70
69082;DHT22;69029;51.986;5.760;2023-07-09T02:56:24;25.50;62.50
69082;DHT22;69029;51.986;5.760;2023-07-09T02:58:50;25.40;62.60
69082;DHT22;69029;51.986;5.760;2023-07-09T03:01:16;25.40;61.20
69082;DHT22;69029;51.986;5.760;2023-07-09T03:03:42;25.40;63.40
69082;DHT22;69029;51.986;5.760;2023-07-09T03:06:08;25.40;63.40
69082;DHT22;69029;51.986;5.760;2023-07-09T03:08:34;25.40;62.20
69082;DHT22;69029;51.986;5.760;2023-07-09T03:11:00;25.40;63.50
69082;DHT22;69029;51.986;5.760;2023-07-09T03:13:35;25.40;64.60
69082;DHT22;69029;51.986;5.760;2023-07-09T03:16:00;25.40;63.10
69082;DHT22;69029;51.986;5.760;2023-07-09T03:18:26;25.40;64.80
69082;DHT22;69029;51.986;5.760;2023-07-09T03:20:51;25.30;63.60
69082;DHT22;69029;51.986;5.760;2023-07-09T03:23:17;25.30;63.10
69082;DHT22;69029;51.986;5.760;2023-07-09T03:25:44;25.30;64.50
69082;DHT22;69029;51.986;5.760;2023-07-09T03:28:10;25.30;65.70
69082;DHT22;69029;51.986;5.760;2023-07-09T03:30:41;25.30;65.90
69082;DHT22;69029;51.986;5.760;2023-07-09T03:33:07;25.30;63.90
69082;DHT22;69029;51.986;5.760;2023-07-09T03:35:33;25.30;65.10
69082;DHT22;69029;51.986;5.760;2023-07-09T03:38:00;25.30;66.10
69082;DHT22;69029;51.986;5.760;2023-07-09T03:40:26;25.20;66.60
69082;DHT22;69029;51.986;5.760;2023-07-09T03:42:51;25.20;67.90
69082;DHT22;69029;51.986;5.760;2023-07-09T03:45:17;25.20;66.80
69082;DHT22;69029;51.986;5.760;2023-07-09T03:47:42;25.10;67.40
69082;DHT22;69029;51.986;5.760;2023-07-09T03:50:09;25.10;68.60
69082;DHT22;69029;51.986;5.760;2023-07-09T03:52:35;25.00;67.60
69082;DHT22;69029;51.986;5.760;2023-07-09T03:55:01;25.00;68.80
69082;DHT22;69029;51.986;5.760;2023-07-09T03:57:30;24.90;67.00
69082;DHT22;69029;51.986;5.760;2023-07-09T03:59:55;25.00;68.20
69082;DHT22;69029;51.986;5.760;2023-07-09T04:02:21;24.90;68.80
69082;DHT22;69029;51.986;5.760;2023-07-09T04:04:47;24.80;68.70
69082;DHT22;69029;51.986;5.760;2023-07-09T04:07:12;24.80;67.80
69082;DHT22;69029;51.986;5.760;2023-07-09T04:09:38;24.80;68.70
69082;DHT22;69029;51.986;5.760;2023-07-09T04:12:04;24.80;70.50
69082;DHT22;69029;51.986;5.760;2023-07-09T04:14:30;24.80;70.70
69082;DHT22;69029;51.986;5.760;2023-07-09T04:16:56;24.70;70.40
69082;DHT22;69029;51.986;5.760;2023-07-09T04:19:23;24.70;71.20
69082;DHT22;69029;51.986;5.760;2023-07-09T04:21:48;24.70;71.80
69082;DHT22;69029;51.986;5.760;2023-07-09T04:24:17;24.60;70.90
69082;DHT22;69029;51.986;5.760;2023-07-09T04:26:43;24.60;70.90
69082;DHT22;69029;51.986;5.760;2023-07-09T04:29:09;24.60;74.10
69082;DHT22;69029;51.986;5.760;2023-07-09T04:31:35;24.60;74.60
69082;DHT22;69029;51.986;5.760;2023-07-09T04:34:01;24.60;74.80
69082;DHT22;69029;51.986;5.760;2023-07-09T04:36:27;24.60;73.50
69082;DHT22;69029;51.986;5.760;2023-07-09T04:38:52;24.50;75.20
69082;DHT22;69029;51.986;5.760;2023-07-09T04:41:18;24.50;75.80
69082;DHT22;69029;51.986;5.760;2023-07-09T04:43:44;24.50;78.30
69082;DHT22;69029;51.986;5.760;2023-07-09T04:46:09;24.50;77.80
69082;DHT22;69029;51.986;5.760;2023-07-09T04:48:35;24.60;79.50
69082;DHT22;69029;51.986;5.760;2023-07-09T04:51:01;24.50;79.60
69082;DHT22;69029;51.986;5.760;2023-07-09T04:53:27;24.50;78.20
69082;DHT22;69029;51.986;5.760;2023-07-09T04:55:52;24.50;78.90
69082;DHT22;69029;51.986;5.760;2023-07-09T04:58:18;24.60;80.60
69082;DHT22;69029;51.986;5.760;2023-07-09T05:00:44;24.50;82.30
69082;DHT22;69029;51.986;5.760;2023-07-09T05:03:11;24.50;84.20
69082;DHT22;69029;51.986;5.760;2023-07-09T05:05:45;24.60;86.60
69082;DHT22;69029;51.986;5.760;2023-07-09T05:08:12;24.60;87.40
69082;DHT22;69029;51.986;5.760;2023-07-09T05:10:42;24.60;89.60
69082;DHT22;69029;51.986;5.760;2023-07-09T05:13:08;24.60;91.70
69082;DHT22;69029;51.986;5.760;2023-07-09T05:15:34;24.60;92.20
69082;DHT22;69029;51.986;5.760;2023-07-09T05:17:59;24.60;93.30
69082;DHT22;69029;51.986;5.760;2023-07-09T05:20:25;24.60;93.80
69082;DHT22;69029;51.986;5.760;2023-07-09T05:22:51;24.70;94.30
69082;DHT22;69029;51.986;5.760;2023-07-09T05:25:17;24.70;94.90
69082;DHT22;69029;51.986;5.760;2023-07-09T05:27:42;24.70;97.10
69082;DHT22;69029;51.986;5.760;2023-07-09T05:30:08;24.70;98.00
69082;DHT22;69029;51.986;5.760;2023-07-09T05:32:36;24.80;99.90
69082;DHT22;69029;51.986;5.760;2023-07-09T05:35:02;24.80;99.90
69082;DHT22;69029;51.986;5.760;2023-07-09T05:37:28;24.80;99.90
69082;DHT22;69029;51.986;5.760;2023-07-09T05:39:53;24.80;99.90
69082;DHT22;69029;51.986;5.760;2023-07-09T05:42:19;24.90;99.90
69082;DHT22;69029;51.986;5.760;2023-07-09T05:44:45;24.90;99.90
69082;DHT22;69029;51.986;5.760;2023-07-09T05:47:10;25.00;99.90
69082;DHT22;69029;51.986;5.760;2023-07-09T05:49:38;25.00;99.90
69082;DHT22;69029;51.986;5.760;2023-07-09T05:52:04;25.10;99.90
69082;DHT22;69029;51.986;5.760;2023-07-09T05:54:29;25.20;99.90
69082;DHT22;69029;51.986;5.760;2023-07-09T05:56:55;25.20;99.90
69082;DHT22;69029;51.986;5.760;2023-07-09T05:59:20;25.30;99.90
69082;DHT22;69029;51.986;5.760;2023-07-09T06:01:46;25.40;99.90
69082;DHT22;69029;51.986;5.760;2023-07-09T06:04:12;25.40;99.90
69082;DHT22;69029;51.986;5.760;2023-07-09T06:06:40;25.50;99.90
69082;DHT22;69029;51.986;5.760;2023-07-09T06:09:07;25.60;99.90
69082;DHT22;69029;51.986;5.760;2023-07-09T06:11:34;25.60;99.90
69082;DHT22;69029;51.986;5.760;2023-07-09T06:13:59;25.70;99.90
69082;DHT22;69029;51.986;5.760;2023-07-09T06:16:26;25.70;99.90
69082;DHT22;69029;51.986;5.760;2023-07-09T06:18:51;25.80;99.90
69082;DHT22;69029;51.986;5.760;2023-07-09T06:21:20;25.90;99.90
69082;DHT22;69029;51.986;5.760;2023-07-09T06:23:46;26.00;99.90
69082;DHT22;69029;51.986;5.760;2023-07-09T06:26:12;26.00;99.90
69082;DHT22;69029;51.986;5.760;2023-07-09T06:28:38;26.10;99.90
69082;DHT22;69029;51.986;5.760;2023-07-09T06:31:04;26.20;99.90
69082;DHT22;69029;51.986;5.760;2023-07-09T06:33:30;26.30;99.90
69082;DHT22;69029;51.986;5.760;2023-07-09T06:35:58;26.30;99.90
69082;DHT22;69029;51.986;5.760;2023-07-09T06:38:24;26.40;98.40
69082;DHT22;69029;51.986;5.760;2023-07-09T06:40:50;26.50;99.90
69082;DHT22;69029;51.986;5.760;2023-07-09T06:43:17;26.50;99.20
69082;DHT22;69029;51.986;5.760;2023-07-09T06:45:55;26.60;97.00
69082;DHT22;69029;51.986;5.760;2023-07-09T06:48:21;26.70;96.30
69082;DHT22;69029;51.986;5.760;2023-07-09T06:50:48;26.80;94.50
69082;DHT22;69029;51.986;5.760;2023-07-09T06:53:14;26.80;92.50
69082;DHT22;69029;51.986;5.760;2023-07-09T06:55:40;26.90;92.00
69082;DHT22;69029;51.986;5.760;2023-07-09T06:58:06;26.90;90.10
69082;DHT22;69029;51.986;5.760;2023-07-09T07:00:34;27.00;87.90
69082;DHT22;69029;51.986;5.760;2023-07-09T07:03:01;27.00;90.00
69082;DHT22;69029;51.986;5.760;2023-07-09T07:05:26;27.10;90.70
69082;DHT22;69029;51.986;5.760;2023-07-09T07:07:52;27.10;89.30
69082;DHT22;69029;51.986;5.760;2023-07-09T07:10:19;27.20;87.80
69082;DHT22;69029;51.986;5.760;2023-07-09T07:12:46;27.30;87.90
69082;DHT22;69029;51.986;5.760;2023-07-09T07:15:16;27.30;88.60
69082;DHT22;69029;51.986;5.760;2023-07-09T07:17:42;27.40;90.30
69082;DHT22;69029;51.986;5.760;2023-07-09T07:20:10;27.40;89.40
69082;DHT22;69029;51.986;5.760;2023-07-09T07:22:36;27.50;89.80
69082;DHT22;69029;51.986;5.760;2023-07-09T07:25:03;27.50;89.10
69082;DHT22;69029;51.986;5.760;2023-07-09T07:27:29;27.60;89.30
69082;DHT22;69029;51.986;5.760;2023-07-09T07:29:55;27.60;88.00
69082;DHT22;69029;51.986;5.760;2023-07-09T07:32:21;27.70;82.90
69082;DHT22;69029;51.986;5.760;2023-07-09T07:34:47;27.80;81.10
69082;DHT22;69029;51.986;5.760;2023-07-09T07:37:14;27.80;80.60
69082;DHT22;69029;51.986;5.760;2023-07-09T07:39:39;27.80;79.30
69082;DHT22;69029;51.986;5.760;2023-07-09T07:42:06;27.90;78.50
69082;DHT22;69029;51.986;5.760;2023-07-09T07:44:32;28.00;78.80
69082;DHT22;69029;51.986;5.760;2023-07-09T07:46:57;28.00;77.40
69082;DHT22;69029;51.986;5.760;2023-07-09T07:49:23;28.10;78.10
69082;DHT22;69029;51.986;5.760;2023-07-09T07:51:48;28.10;77.50
69082;DHT22;69029;51.986;5.760;2023-07-09T07:54:14;28.20;75.20
69082;DHT22;69029;51.986;5.760;2023-07-09T07:56:40;28.20;74.10
69082;DHT22;69029;51.986;5.760;2023-07-09T07:59:06;28.30;74.80
69082;DHT22;69029;51.986;5.760;2023-07-09T08:01:32;28.30;76.80
69082;DHT22;69029;51.986;5.760;2023-07-09T08:04:00;28.40;76.00
69082;DHT22;69029;51.986;5.760;2023-07-09T08:06:26;28.40;75.60
69082;DHT22;69029;51.986;5.760;2023-07-09T08:08:52;28.50;75.70
69082;DHT22;69029;51.986;5.760;2023-07-09T08:11:17;28.60;78.70
69082;DHT22;69029;51.986;5.760;2023-07-09T08:13:43;28.60;78.90
69082;DHT22;69029;51.986;5.760;2023-07-09T08:16:08;28.70;75.40
69082;DHT22;69029;51.986;5.760;2023-07-09T08:18:37;28.70;73.30
69082;DHT22;69029;51.986;5.760;2023-07-09T08:21:03;28.80;74.10
69082;DHT22;69029;51.986;5.760;2023-07-09T08:23:29;28.80;72.60
69082;DHT22;69029;51.986;5.760;2023-07-09T08:25:56;28.90;74.00
69082;DHT22;69029;51.986;5.760;2023-07-09T08:28:22;29.00;73.60
69082;DHT22;69029;51.986;5.760;2023-07-09T08:30:48;29.00;73.50
69082;DHT22;69029;51.986;5.760;2023-07-09T08:33:16;29.00;72.40
69082;DHT22;69029;51.986;5.760;2023-07-09T08:35:45;29.10;72.90
69082;DHT22;69029;51.986;5.760;2023-07-09T08:38:11;29.10;72.20
69082;DHT22;69029;51.986;5.760;2023-07-09T08:40:40;29.20;71.60
69082;DHT22;69029;51.986;5.760;2023-07-09T08:43:31;29.20;71.50
69082;DHT22;69029;51.986;5.760;2023-07-09T08:46:14;29.30;71.90
69082;DHT22;69029;51.986;5.760;2023-07-09T08:48:46;29.40;71.90
69082;DHT22;69029;51.986;5.760;2023-07-09T08:51:20;29.40;71.10
69082;DHT22;69029;51.986;5.760;2023-07-09T08:53:54;29.50;70.30
69082;DHT22;69029;51.986;5.760;2023-07-09T08:56:22;29.50;69.70
69082;DHT22;69029;51.986;5.760;2023-07-09T08:58:49;29.50;70.50
69082;DHT22;69029;51.986;5.760;2023-07-09T09:01:40;29.60;69.10
69082;DHT22;69029;51.986;5.760;2023-07-09T09:04:29;29.60;70.90
69082;DHT22;69029;51.986;5.760;2023-07-09T09:09:55;29.70;69.30
69082;DHT22;69029;51.986;5.760;2023-07-09T09:12:24;29.80;67.30
69082;DHT22;69029;51.986;5.760;2023-07-09T09:14:59;29.80;67.60
69082;DHT22;69029;51.986;5.760;2023-07-09T09:17:27;29.90;67.60
69082;DHT22;69029;51.986;5.760;2023-07-09T09:20:01;29.90;66.80
69082;DHT22;69029;51.986;5.760;2023-07-09T09:27:41;30.00;67.90
69082;DHT22;69029;51.986;5.760;2023-07-09T09:30:19;30.10;66.20
69082;DHT22;69029;51.986;5.760;2023-07-09T09:32:54;30.10;65.90
69082;DHT22;69029;51.986;5.760;2023-07-09T09:35:30;30.20;67.20
69082;DHT22;69029;51.986;5.760;2023-07-09T09:37:57;30.20;67.00
69082;DHT22;69029;51.986;5.760;2023-07-09T09:40:25;30.30;66.00
69082;DHT22;69029;51.986;5.760;2023-07-09T09:42:57;30.30;66.20
69082;DHT22;69029;51.986;5.760;2023-07-09T09:45:33;30.40;64.90
69082;DHT22;69029;51.986;5.760;2023-07-09T09:48:00;30.40;62.70
69082;DHT22;69029;51.986;5.760;2023-07-09T09:50:30;30.50;63.00
69082;DHT22;69029;51.986;5.760;2023-07-09T09:52:57;30.50;64.70
69082;DHT22;69029;51.986;5.760;2023-07-09T09:55:28;30.70;65.30
69082;DHT22;69029;51.986;5.760;2023-07-09T09:57:54;30.80;65.80
69082;DHT22;69029;51.986;5.760;2023-07-09T10:00:26;30.80;61.50
69082;DHT22;69029;51.986;5.760;2023-07-09T10:02:59;31.00;63.30
69082;DHT22;69029;51.986;5.760;2023-07-09T10:05:40;31.10;62.30
69082;DHT22;69029;51.986;5.760;2023-07-09T10:08:08;31.30;64.20
69082;DHT22;69029;51.986;5.760;2023-07-09T10:10:38;31.40;62.60
69082;DHT22;69029;51.986;5.760;2023-07-09T10:13:21;31.50;59.40
69082;DHT22;69029;51.986;5.760;2023-07-09T10:16:03;31.50;59.70
69082;DHT22;69029;51.986;5.760;2023-07-09T10:33:15;32.50;59.70
69082;DHT22;69029;51.986;5.760;2023-07-09T10:35:52;32.60;59.40
69082;DHT22;69029;51.986;5.760;2023-07-09T10:38:29;32.80;55.20
69082;DHT22;69029;51.986;5.760;2023-07-09T10:41:00;32.90;55.00
69082;DHT22;69029;51.986;5.760;2023-07-09T10:43:48;33.10;53.90
69082;DHT22;69029;51.986;5.760;2023-07-09T10:46:25;33.20;52.90
69082;DHT22;69029;51.986;5.760;2023-07-09T10:48:53;33.50;53.30
69082;DHT22;69029;51.986;5.760;2023-07-09T10:51:31;33.80;52.70
69082;DHT22;69029;51.986;5.760;2023-07-09T10:54:28;33.90;51.80
69082;DHT22;69029;51.986;5.760;2023-07-09T10:57:21;34.20;52.00
69082;DHT22;69029;51.986;5.760;2023-07-09T10:59:51;34.50;50.00
69082;DHT22;69029;51.986;5.760;2023-07-09T11:02:28;34.70;47.30
69082;DHT22;69029;51.986;5.760;2023-07-09T11:05:05;34.80;48.80
69082;DHT22;69029;51.986;5.760;2023-07-09T11:10:23;35.30;47.80
69082;DHT22;69029;51.986;5.760;2023-07-09T11:13:04;35.50;48.00
69082;DHT22;69029;51.986;5.760;2023-07-09T11:15:35;35.70;45.60
69082;DHT22;69029;51.986;5.760;2023-07-09T11:18:05;35.90;46.30
69082;DHT22;69029;51.986;5.760;2023-07-09T11:20:35;36.10;46.20
69082;DHT22;69029;51.986;5.760;2023-07-09T11:23:07;36.40;46.70
69082;DHT22;69029;51.986;5.760;2023-07-09T11:25:47;36.50;47.60
69082;DHT22;69029;51.986;5.760;2023-07-09T11:28:13;36.80;46.60
69082;DHT22;69029;51.986;5.760;2023-07-09T11:31:06;36.90;47.30
69082;DHT22;69029;51.986;5.760;2023-07-09T11:33:33;37.30;42.10
69082;DHT22;69029;51.986;5.760;2023-07-09T11:36:08;37.50;47.20
69082;DHT22;69029;51.986;5.760;2023-07-09T11:38:43;37.70;47.30
69082;DHT22;69029;51.986;5.760;2023-07-09T11:41:40;37.90;47.20
69082;DHT22;69029;51.986;5.760;2023-07-09T11:44:25;38.20;46.10
69082;DHT22;69029;51.986;5.760;2023-07-09T11:46:57;38.40;50.00
69082;DHT22;69029;51.986;5.760;2023-07-09T11:49:38;38.60;49.40
69082;DHT22;69029;51.986;5.760;2023-07-09T11:52:05;38.80;49.00
69082;DHT22;69029;51.986;5.760;2023-07-09T11:54:35;38.90;50.10
69082;DHT22;69029;51.986;5.760;2023-07-09T11:57:02;39.00;45.80
69082;DHT22;69029;51.986;5.760;2023-07-09T11:59:28;39.00;44.10
69082;DHT22;69029;51.986;5.760;2023-07-09T12:01:54;39.00;39.40
69082;DHT22;69029;51.986;5.760;2023-07-09T12:04:27;39.00;42.70
69082;DHT22;69029;51.986;5.760;2023-07-09T12:06:58;39.00;41.60
69082;DHT22;69029;51.986;5.760;2023-07-09T12:09:31;39.00;45.20
69082;DHT22;69029;51.986;5.760;2023-07-09T12:11:57;39.00;48.50
69082;DHT22;69029;51.986;5.760;2023-07-09T12:14:22;39.00;47.30
69082;DHT22;69029;51.986;5.760;2023-07-09T12:16:51;38.90;47.90
69082;DHT22;69029;51.986;5.760;2023-07-09T12:19:19;38.80;47.50
69082;DHT22;69029;51.986;5.760;2023-07-09T12:21:57;38.70;44.60
69082;DHT22;69029;51.986;5.760;2023-07-09T12:24:26;38.70;40.60
69082;DHT22;69029;51.986;5.760;2023-07-09T12:26:53;38.50;43.20
69082;DHT22;69029;51.986;5.760;2023-07-09T12:29:19;38.40;44.30
69082;DHT22;69029;51.986;5.760;2023-07-09T12:31:45;38.30;45.40
69082;DHT22;69029;51.986;5.760;2023-07-09T12:34:13;38.20;45.20
69082;DHT22;69029;51.986;5.760;2023-07-09T12:36:46;38.20;44.00
69082;DHT22;69029;51.986;5.760;2023-07-09T12:39:12;38.20;43.90
69082;DHT22;69029;51.986;5.760;2023-07-09T12:41:44;38.20;43.50
69082;DHT22;69029;51.986;5.760;2023-07-09T12:47:36;38.00;42.50
69082;DHT22;69029;51.986;5.760;2023-07-09T12:52:56;38.00;39.10
69082;DHT22;69029;51.986;5.760;2023-07-09T12:55:25;37.90;41.50
69082;DHT22;69029;51.986;5.760;2023-07-09T12:57:55;37.90;40.70
69082;DHT22;69029;51.986;5.760;2023-07-09T13:00:21;37.90;40.10
69082;DHT22;69029;51.986;5.760;2023-07-09T13:02:53;37.90;39.40
69082;DHT22;69029;51.986;5.760;2023-07-09T13:05:22;37.90;39.30
69082;DHT22;69029;51.986;5.760;2023-07-09T13:07:54;37.60;40.60
69082;DHT22;69029;51.986;5.760;2023-07-09T13:10:26;37.60;41.60
69082;DHT22;69029;51.986;5.760;2023-07-09T13:12:57;37.80;41.20
69082;DHT22;69029;51.986;5.760;2023-07-09T13:15:31;37.80;40.90
69082;DHT22;69029;51.986;5.760;2023-07-09T13:18:01;37.70;39.50
69082;DHT22;69029;51.986;5.760;2023-07-09T13:20:28;37.50;39.80
69082;DHT22;69029;51.986;5.760;2023-07-09T13:22:55;37.30;39.60
69082;DHT22;69029;51.986;5.760;2023-07-09T13:25:21;37.20;41.30
69082;DHT22;69029;51.986;5.760;2023-07-09T13:27:47;37.10;40.30
69082;DHT22;69029;51.986;5.760;2023-07-09T13:30:13;36.90;40.20
69082;DHT22;69029;51.986;5.760;2023-07-09T13:32:39;36.80;41.60
69082;DHT22;69029;51.986;5.760;2023-07-09T13:35:22;36.70;42.40
69082;DHT22;69029;51.986;5.760;2023-07-09T13:37:48;36.70;43.10
69082;DHT22;69029;51.986;5.760;2023-07-09T13:40:15;36.60;42.70
69082;DHT22;69029;51.986;5.760;2023-07-09T13:42:43;36.30;43.90
69082;DHT22;69029;51.986;5.760;2023-07-09T13:45:20;36.10;43.70
69082;DHT22;69029;51.986;5.760;2023-07-09T13:47:46;36.00;44.40
69082;DHT22;69029;51.986;5.760;2023-07-09T13:50:12;35.90;45.10
69082;DHT22;69029;51.986;5.760;2023-07-09T13:52:39;35.60;45.70
69082;DHT22;69029;51.986;5.760;2023-07-09T13:55:08;35.40;46.60
69082;DHT22;69029;51.986;5.760;2023-07-09T13:57:36;35.10;45.60
69082;DHT22;69029;51.986;5.760;2023-07-09T14:00:02;34.80;45.70
69082;DHT22;69029;51.986;5.760;2023-07-09T14:02:31;34.60;48.00
69082;DHT22;69029;51.986;5.760;2023-07-09T14:05:03;34.50;46.80
69082;DHT22;69029;51.986;5.760;2023-07-09T14:07:33;34.30;46.80
69082;DHT22;69029;51.986;5.760;2023-07-09T14:10:00;34.20;47.60
69082;DHT22;69029;51.986;5.760;2023-07-09T14:12:26;34.20;48.00
69082;DHT22;69029;51.986;5.760;2023-07-09T14:14:53;34.00;47.40
69082;DHT22;69029;51.986;5.760;2023-07-09T14:17:21;33.90;47.20
69082;DHT22;69029;51.986;5.760;2023-07-09T14:19:48;33.80;47.10
69082;DHT22;69029;51.986;5.760;2023-07-09T14:22:34;33.40;47.40
69082;DHT22;69029;51.986;5.760;2023-07-09T14:25:02;33.20;48.10
69082;DHT22;69029;51.986;5.760;2023-07-09T14:27:28;33.10;48.00
69082;DHT22;69029;51.986;5.760;2023-07-09T14:29:54;32.90;48.30
69082;DHT22;69029;51.986;5.760;2023-07-09T14:32:30;32.80;48.10
69082;DHT22;69029;51.986;5.760;2023-07-09T14:34:56;32.70;48.30
69082;DHT22;69029;51.986;5.760;2023-07-09T14:37:21;32.60;48.30
69082;DHT22;69029;51.986;5.760;2023-07-09T14:39:47;32.60;49.10
69082;DHT22;69029;51.986;5.760;2023-07-09T14:42:13;32.60;48.90
69082;DHT22;69029;51.986;5.760;2023-07-09T14:44:40;32.50;49.00
69082;DHT22;69029;51.986;5.760;2023-07-09T14:47:14;32.40;48.30
69082;DHT22;69029;51.986;5.760;2023-07-09T14:49:40;32.20;48.40
69082;DHT22;69029;51.986;5.760;2023-07-09T14:52:16;31.70;50.50
69082;DHT22;69029;51.986;5.760;2023-07-09T14:54:47;30.90;57.60
69082;DHT22;69029;51.986;5.760;2023-07-09T14:57:25;29.90;65.70
69082;DHT22;69029;51.986;5.760;2023-07-09T14:59:52;29.70;72.90
69082;DHT22;69029;51.986;5.760;2023-07-09T15:02:33;29.60;70.50
69082;DHT22;69029;51.986;5.760;2023-07-09T15:05:04;29.60;68.30
69082;DHT22;69029;51.986;5.760;2023-07-09T15:07:30;29.60;73.90
69082;DHT22;69029;51.986;5.760;2023-07-09T15:10:00;29.50;67.90
69082;DHT22;69029;51.986;5.760;2023-07-09T15:12:28;29.30;69.10
69082;DHT22;69029;51.986;5.760;2023-07-09T15:17:34;29.10;71.70
69082;DHT22;69029;51.986;5.760;2023-07-09T15:19:59;29.30;74.20
69082;DHT22;69029;51.986;5.760;2023-07-09T15:22:31;29.30;69.60
69082;DHT22;69029;51.986;5.760;2023-07-09T15:24:58;29.40;70.20
69082;DHT22;69029;51.986;5.760;2023-07-09T15:27:25;29.60;65.50
69082;DHT22;69029;51.986;5.760;2023-07-09T15:29:51;29.70;68.50
69082;DHT22;69029;51.986;5.760;2023-07-09T15:32:16;29.90;69.60
69082;DHT22;69029;51.986;5.760;2023-07-09T15:34:42;30.00;64.80
69082;DHT22;69029;51.986;5.760;2023-07-09T15:37:14;30.10;68.80
69082;DHT22;69029;51.986;5.760;2023-07-09T15:39:41;30.20;66.10
69082;DHT22;69029;51.986;5.760;2023-07-09T15:42:11;30.20;63.60
69082;DHT22;69029;51.986;5.760;2023-07-09T15:44:38;30.10;63.30
69082;DHT22;69029;51.986;5.760;2023-07-09T15:47:04;30.20;63.40
69082;DHT22;69029;51.986;5.760;2023-07-09T15:49:30;30.20;64.00
69082;DHT22;69029;51.986;5.760;2023-07-09T15:51:56;30.20;61.90
69082;DHT22;69029;51.986;5.760;2023-07-09T15:54:24;30.20;62.20
69082;DHT22;69029;51.986;5.760;2023-07-09T15:56:51;30.20;62.00
69082;DHT22;69029;51.986;5.760;2023-07-09T15:59:35;30.20;63.40
69082;DHT22;69029;51.986;5.760;2023-07-09T16:02:03;30.10;63.70
69082;DHT22;69029;51.986;5.760;2023-07-09T16:04:34;30.10;62.90
69082;DHT22;69029;51.986;5.760;2023-07-09T16:06:59;30.10;62.80
69082;DHT22;69029;51.986;5.760;2023-07-09T16:09:25;30.20;63.30
69082;DHT22;69029;51.986;5.760;2023-07-09T16:11:52;30.20;65.20
69082;DHT22;69029;51.986;5.760;2023-07-09T16:14:32;30.20;63.30